createdAt,value
2019-05-07T00:06:02.760Z,23.9
2019-05-07T00:16:02.435Z,23.9
2019-05-07T00:26:02.141Z,23.9
2019-05-07T00:35:59.143Z,23.9
2019-05-07T00:45:58.355Z,23.9
2019-05-07T00:52:19.807Z,23.9
2019-05-07T01:02:19.022Z,23.9
2019-05-07T01:12:18.239Z,23.9
2019-05-07T01:27:53.962Z,23.9
2019-05-07T01:37:53.223Z,23.8
2019-05-07T01:47:53.074Z,23.8
2019-05-07T01:57:52.243Z,23.8
2019-05-07T02:07:52.112Z,23.8
2019-05-07T02:17:50.027Z,23.8
2019-05-07T02:27:49.278Z,23.8
2019-05-07T02:37:53.181Z,23.8
2019-05-07T02:47:47.871Z,23.8
2019-05-07T02:55:39.936Z,23.8
2019-05-07T03:05:39.098Z,23.8
2019-05-07T03:15:38.313Z,23.8
2019-05-07T03:25:37.528Z,23.8
2019-05-07T03:35:37.821Z,23.9
2019-05-07T03:45:35.997Z,23.9
2019-05-07T03:55:17.733Z,23.8
2019-05-07T04:07:42.929Z,23.9
2019-05-07T04:23:08.671Z,23.9
2019-05-07T04:33:07.887Z,23.9
2019-05-07T04:43:07.109Z,23.8
2019-05-07T04:53:06.326Z,23.9
2019-05-07T05:03:05.539Z,23.9
2019-05-07T05:14:34.112Z,24
2019-05-07T05:24:33.138Z,23.9
2019-05-07T05:34:32.881Z,23.9
2019-05-07T05:44:32.088Z,23.9
2019-05-07T05:54:31.816Z,23.9
2019-05-07T06:06:32.802Z,23.9
2019-05-07T06:16:32.839Z,23.9
2019-05-07T06:26:31.873Z,23.8
2019-05-07T06:36:32.607Z,23.8
2019-05-07T06:46:29.595Z,23.8
2019-05-07T06:56:28.804Z,23.8
2019-05-07T07:06:28.044Z,23.8
2019-05-07T07:16:27.339Z,23.8
2019-05-07T07:26:26.624Z,23.8
2019-05-07T07:36:25.910Z,23.8
2019-05-07T07:46:25.251Z,23.8
2019-05-07T07:57:42.701Z,23.7
2019-05-07T08:07:42.348Z,23.7
2019-05-07T08:17:39.257Z,23.7
2019-05-07T08:27:38.469Z,23.7
2019-05-07T08:41:56.405Z,23.6
2019-05-07T08:51:55.565Z,23.7
2019-05-07T09:01:54.774Z,23.6
2019-05-07T09:16:03.332Z,23.6
2019-05-07T09:26:02.800Z,23.6
2019-05-07T09:41:16.867Z,23.6
2019-05-07T09:50:28.884Z,23.6
2019-05-07T09:57:34.695Z,23.6
2019-05-07T10:07:32.704Z,23.6
2019-05-07T10:17:32.711Z,23.6
2019-05-07T10:27:32.414Z,23.6
2019-05-07T10:37:31.825Z,23.6
2019-05-07T10:43:51.947Z,23.6
2019-05-07T10:53:51.671Z,23.6
2019-05-07T11:03:15.548Z,23.6
2019-05-07T11:13:14.705Z,23.5
2019-05-07T11:23:13.973Z,23.5
2019-05-07T11:31:45.521Z,23.5
2019-05-07T11:41:44.729Z,23.4
2019-05-07T11:51:46.077Z,23.5
2019-05-07T12:01:47.631Z,23.4
2019-05-07T12:10:43.136Z,23.4
2019-05-07T12:20:42.345Z,23.4
2019-05-07T12:34:16.981Z,23.4
2019-05-07T12:44:16.240Z,23.4
2019-05-07T12:54:15.456Z,23.4
2019-05-07T13:04:14.621Z,23.4
2019-05-07T13:10:22.710Z,23.4
2019-05-07T13:20:22.617Z,23.4
2019-05-07T13:31:09.970Z,23.4
2019-05-07T13:41:09.179Z,23.4
2019-05-07T13:51:08.393Z,23.4
2019-05-07T13:58:13.867Z,23.3
2019-05-07T14:13:12.707Z,23.3
2019-05-07T14:19:32.567Z,23.3
2019-05-07T14:29:31.861Z,23.3
2019-05-07T14:39:29.068Z,23.3
2019-05-07T14:49:28.282Z,23.3
2019-05-07T14:59:27.487Z,23.3
2019-05-07T15:09:26.688Z,23.3
2019-05-07T15:19:25.939Z,23.3
2019-05-07T15:29:25.237Z,23.3
2019-05-07T15:39:24.531Z,23.2
2019-05-07T15:49:23.827Z,23.2
2019-05-07T15:59:23.121Z,23.2
2019-05-07T16:09:22.418Z,23.2
2019-05-07T16:20:03.104Z,23.2
2019-05-07T16:30:00.104Z,23.2
2019-05-07T16:39:59.316Z,23.2
2019-05-07T16:49:58.531Z,23.1
2019-05-07T16:59:57.731Z,23.1
2019-05-07T17:09:56.938Z,23.1
2019-05-07T17:19:56.147Z,23.1
2019-05-07T17:29:55.365Z,23.1
2019-05-07T17:39:54.582Z,23.1
2019-05-07T17:49:53.778Z,23.1
2019-05-07T17:59:45.865Z,23.1
2019-05-07T18:09:45.076Z,23.1
2019-05-07T18:19:44.342Z,23.1
2019-05-07T18:31:12.148Z,23.1
2019-05-07T18:41:11.888Z,23
2019-05-07T18:51:08.561Z,23
2019-05-07T19:01:07.767Z,23.1
2019-05-07T19:11:06.980Z,23.1
2019-05-07T19:21:06.807Z,23.1
2019-05-07T19:31:05.443Z,23.1
2019-05-07T19:41:04.739Z,23.1
2019-05-07T19:51:04.035Z,23.1
2019-05-07T20:01:03.386Z,23.1
2019-05-07T20:11:02.807Z,23.1
2019-05-07T20:21:02.653Z,23.1
2019-05-07T20:31:01.128Z,23.1
2019-05-07T20:41:01.951Z,23.1
2019-05-07T20:50:59.548Z,23.1
2019-05-07T21:00:58.769Z,23.1
2019-05-07T21:11:03.375Z,23
2019-05-07T21:26:19.297Z,23
2019-05-07T21:36:18.506Z,22.9
2019-05-07T21:46:17.771Z,22.9
2019-05-07T21:56:16.931Z,22.9
2019-05-07T22:06:16.142Z,22.9
2019-05-07T22:16:15.342Z,22.9
2019-05-07T22:26:22.041Z,22.9
2019-05-07T22:36:13.885Z,22.9
2019-05-07T22:46:13.180Z,22.9
2019-05-07T22:56:14.099Z,22.9
2019-05-07T23:06:12.332Z,22.9
2019-05-07T23:17:05.834Z,22.8
2019-05-07T23:27:05.050Z,22.8
2019-05-07T23:37:04.306Z,22.8
2019-05-07T23:47:03.466Z,22.8
2019-05-07T23:57:06.588Z,22.8
